Stations météo

réclame
Mon MeteoGroup
Fyvie castle, Grande-Bretagne (99010): Température de l'air & dewpoint: 06.12.2017 06:00:00 - 12.12.2017 06:00:00 (GMT)Fyvie castle, Grande-Bretagne (99010): Quantités de précipitations: 06.12.2017 06:00:00 - 12.12.2017 06:00:00 (GMT)
Date & Time tt [°C] td [°C] rr [mm]
12.12.2017 06:00:00 -1,9 -2,9 -
12.12.2017 05:00:00 -0,3 -2,1 0,0
12.12.2017 04:00:00 1,0 -1,3 0,0
12.12.2017 03:00:00 1,0 -0,9 0,0
12.12.2017 02:00:00 0,6 -0,7 0,0
12.12.2017 01:00:00 0,3 -0,7 0,0
12.12.2017 00:00:00 0,4 -0,4 0,0
11.12.2017 23:00:00 0,8 0,0 0,0
11.12.2017 22:00:00 1,2 0,6 0,0
11.12.2017 21:00:00 0,6 0,1 0,0
11.12.2017 20:00:00 0,2 0,2 0,0
11.12.2017 19:00:00 -0,8 -0,9 0,0
11.12.2017 18:00:00 -2,3 -2,7 0,0
11.12.2017 17:00:00 -1,7 -2,1 0,0
11.12.2017 16:00:00 -1,5 -2,1 0,0
11.12.2017 15:00:00 0,0 -0,7 0,0
11.12.2017 14:00:00 1,3 0,3 0,2
11.12.2017 13:00:00 2,7 1,4 0,2
11.12.2017 12:00:00 2,3 1,7 0,0
11.12.2017 11:00:00 1,2 0,4 0,0
11.12.2017 10:00:00 1,0 0,8 0,0
11.12.2017 09:00:00 -0,9 -1,2 0,0
11.12.2017 08:00:00 -1,7 -2,3 0,0
11.12.2017 07:00:00 -0,5 -1,1 0,0
11.12.2017 06:00:00 0,1 -0,8 0,0
11.12.2017 05:00:00 0,5 -0,7 0,0
11.12.2017 04:00:00 0,8 -0,6 0,0
11.12.2017 03:00:00 0,6 -0,7 0,0
11.12.2017 02:00:00 0,1 -0,8 0,0
11.12.2017 01:00:00 -1,5 -1,8 0,0
11.12.2017 00:00:00 -1,9 -2,6 0,0
10.12.2017 23:00:00 -1,0 -1,5 0,0
10.12.2017 22:00:00 -2,1 -3,5 0,0
10.12.2017 21:00:00 -3,0 -4,0 0,0
10.12.2017 20:00:00 -4,1 -5,1 0,0
10.12.2017 19:00:00 -6,6 -7,6 0,0
10.12.2017 18:00:00 -5,8 -7,1 0,0
10.12.2017 17:00:00 -5,7 -7,1 0,0
10.12.2017 16:00:00 -5,6 -7,0 0,0
10.12.2017 15:00:00 -4,3 -6,0 0,0
10.12.2017 14:00:00 -3,1 -5,1 0,0
10.12.2017 13:00:00 -3,2 -5,3 0,0
10.12.2017 12:00:00 -3,0 -4,8 0,0
10.12.2017 11:00:00 -3,1 -4,6 0,0
10.12.2017 10:00:00 -5,0 -5,5 0,0
10.12.2017 09:00:00 -8,1 -8,8 0,0
10.12.2017 08:00:00 -7,7 -8,8 0,0
10.12.2017 07:00:00 -6,5 -7,8 0,0
10.12.2017 06:00:00 -5,9 -7,3 0,0
10.12.2017 05:00:00 -3,5 -5,6 0,0
10.12.2017 04:00:00 -2,4 -4,4 0,0
10.12.2017 03:00:00 -4,2 -5,1 0,0
10.12.2017 02:00:00 -4,3 -5,9 0,0
10.12.2017 01:00:00 -2,5 -4,5 0,0
10.12.2017 00:00:00 -2,4 -4,3 0,0
09.12.2017 23:00:00 -2,2 -3,8 0,0
09.12.2017 22:00:00 -2,2 -3,4 0,0
09.12.2017 21:00:00 -2,5 -3,4 0,0
09.12.2017 20:00:00 -3,0 -4,0 0,0
09.12.2017 19:00:00 -0,8 -1,4 0,0
09.12.2017 18:00:00 -1,0 -3,0 0,0
09.12.2017 17:00:00 -0,7 -2,5 0,0
09.12.2017 16:00:00 -0,6 -2,6 0,0
09.12.2017 15:00:00 0,1 -1,3 0,0
09.12.2017 14:00:00 0,1 -0,9 0,0
09.12.2017 13:00:00 0,3 -1,7 0,0
09.12.2017 12:00:00 0,0 -1,4 0,0
09.12.2017 11:00:00 -0,1 -1,4 0,0
09.12.2017 10:00:00 0,3 -1,3 0,0
09.12.2017 09:00:00 -0,4 -1,2 0,0
09.12.2017 08:00:00 0,4 -0,7 0,0
09.12.2017 07:00:00 0,6 -0,6 0,2
09.12.2017 06:00:00 0,6 -0,4 0,0
09.12.2017 05:00:00 0,6 -0,7 0,0
09.12.2017 04:00:00 0,6 -0,7 0,0
09.12.2017 03:00:00 0,7 -0,1 0,2
09.12.2017 02:00:00 0,9 0,0 0,0
09.12.2017 01:00:00 0,8 0,2 0,4
09.12.2017 00:00:00 1,2 0,4 0,4
08.12.2017 23:00:00 1,3 0,0 1,0
08.12.2017 22:00:00 1,7 0,6 0,4
08.12.2017 21:00:00 0,8 0,1 0,0
08.12.2017 20:00:00 1,8 -0,5 0,0
08.12.2017 19:00:00 1,0 -0,1 0,0
08.12.2017 18:00:00 1,9 -0,6 0,0
08.12.2017 17:00:00 0,9 -0,5 0,0
08.12.2017 16:00:00 1,3 -1,6 0,2
08.12.2017 15:00:00 1,2 -1,9 0,0
08.12.2017 14:00:00 1,1 -2,3 0,0
08.12.2017 13:00:00 0,0 -1,9 0,0
08.12.2017 12:00:00 0,4 -2,5 0,0
08.12.2017 11:00:00 0,3 -2,1 0,0
08.12.2017 10:00:00 0,6 -3,2 0,0
08.12.2017 09:00:00 0,7 -3,0 0,0
08.12.2017 08:00:00 1,0 -1,2 0,0
08.12.2017 07:00:00 0,4 -0,4 0,0
08.12.2017 06:00:00 0,0 -0,6 0,0
08.12.2017 05:00:00 0,7 -2,6 0,0
08.12.2017 04:00:00 0,3 -3,0 0,0
08.12.2017 03:00:00 0,4 -3,0 0,0
08.12.2017 02:00:00 0,8 -2,7 0,0
08.12.2017 01:00:00 1,0 -1,8 0,0
08.12.2017 00:00:00 1,4 -1,3 0,0
07.12.2017 23:00:00 1,2 -0,6 0,0
07.12.2017 22:00:00 2,6 -1,7 0,4
07.12.2017 21:00:00 2,8 -1,7 0,2
07.12.2017 20:00:00 2,6 -0,8 0,4
07.12.2017 19:00:00 2,4 -0,1 0,6
07.12.2017 18:00:00 2,1 0,5 0,0
07.12.2017 17:00:00 2,9 1,2 0,6
07.12.2017 16:00:00 3,3 1,4 0,2
07.12.2017 15:00:00 3,1 1,6 0,8
07.12.2017 14:00:00 3,4 1,5 0,6
07.12.2017 13:00:00 5,0 1,0 0,0
07.12.2017 12:00:00 5,4 -0,3 0,0
07.12.2017 11:00:00 5,7 -0,7 0,0
07.12.2017 10:00:00 5,8 -0,9 0,0
07.12.2017 09:00:00 6,6 -0,1 0,0
07.12.2017 08:00:00 7,3 1,4 0,0
07.12.2017 07:00:00 7,2 0,3 0,0
07.12.2017 06:00:00 7,4 -0,9 0,0
07.12.2017 05:00:00 8,2 2,3 0,0
07.12.2017 04:00:00 11,2 6,4 0,0
07.12.2017 03:00:00 13,8 9,2 0,0
07.12.2017 02:00:00 13,4 9,6 0,0
07.12.2017 01:00:00 12,5 9,3 0,0
07.12.2017 00:00:00 12,0 9,3 0,0
06.12.2017 23:00:00 11,7 9,1 0,0
06.12.2017 22:00:00 10,8 8,8 0,0
06.12.2017 21:00:00 10,9 8,2 0,0
06.12.2017 20:00:00 11,3 8,1 0,0
06.12.2017 19:00:00 10,7 7,7 0,0
06.12.2017 18:00:00 10,7 7,1 0,0
06.12.2017 17:00:00 10,5 6,9 0,0
06.12.2017 16:00:00 10,2 6,5 0,0
06.12.2017 15:00:00 9,7 6,7 0,0
06.12.2017 14:00:00 9,4 6,2 0,0
06.12.2017 13:00:00 10,3 6,3 0,0
06.12.2017 12:00:00 9,9 6,7 1,6
06.12.2017 11:00:00 10,3 6,3 0,2
06.12.2017 10:00:00 10,6 5,4 0,0
06.12.2017 09:00:00 9,9 5,6 0,0
06.12.2017 08:00:00 9,1 5,5 0,0
06.12.2017 07:00:00 10,4 5,4 0,0
06.12.2017 06:00:00 10,5 5,5 0,0

tt = Température de l'air
td = dewpoint
rr = Quantités de précipitations

stations d'obs. à proximité